Time,TemperatureF,DewpointF,PressureIn,WindDirection,WindDirectionDegrees,WindSpeedMPH,WindSpeedGustMPH,Humidity,HourlyPrecipIn,Conditions,Clouds,dailyrainin,SoftwareType,DateUTC
2013-01-19 00:04:00,16.7,4.5,30.33,SW,232,0.0,0.0,58,0.00,,,0.00,Wunderground v.1.15,2013-01-19 05:04:00,
2013-01-19 00:09:00,17.0,4.0,30.33,SW,232,0.0,0.0,56,0.00,,,0.00,Wunderground v.1.15,2013-01-19 05:09:00,
2013-01-19 00:14:00,17.3,4.3,30.32,SW,232,0.0,0.0,56,0.00,,,0.00,Wunderground v.1.15,2013-01-19 05:14:00,
2013-01-19 00:19:00,17.3,4.3,30.32,SW,232,0.0,0.0,56,0.00,,,0.00,Wunderground v.1.15,2013-01-19 05:19:00,
2013-01-19 00:29:00,17.8,4.7,30.31,SW,223,0.0,0.0,56,0.00,,,0.00,Wunderground v.1.15,2013-01-19 05:29:00,
2013-01-19 00:34:00,18.0,5.7,30.31,SW,222,0.0,0.0,58,0.00,,,0.00,Wunderground v.1.15,2013-01-19 05:34:00,
2013-01-19 00:39:00,18.0,5.3,30.31,SW,220,0.0,0.0,57,0.00,,,0.00,Wunderground v.1.15,2013-01-19 05:39:00,
2013-01-19 00:44:00,18.3,4.8,30.30,SW,227,0.0,0.0,55,0.00,,,0.00,Wunderground v.1.15,2013-01-19 05:44:00,
2013-01-19 00:49:00,18.6,5.5,30.30,SSW,199,0.0,1.0,56,0.00,,,0.00,Wunderground v.1.15,2013-01-19 05:49:00,
2013-01-19 01:00:00,19.2,5.3,30.30,SW,219,0.0,0.0,54,0.00,,,0.00,Wunderground v.1.15,2013-01-19 06:00:00,
2013-01-19 01:09:00,19.7,5.7,30.30,SW,232,0.0,0.0,54,0.00,,,0.00,Wunderground v.1.15,2013-01-19 06:09:00,
2013-01-19 01:15:00,19.9,5.5,30.29,SW,215,0.0,0.0,53,0.00,,,0.00,Wunderground v.1.15,2013-01-19 06:15:00,
2013-01-19 01:20:00,20.2,5.8,30.29,SW,232,0.0,0.0,53,0.00,,,0.00,Wunderground v.1.15,2013-01-19 06:20:00,
2013-01-19 01:25:00,20.3,5.9,30.29,SW,227,0.0,0.0,53,0.00,,,0.00,Wunderground v.1.15,2013-01-19 06:25:00,
2013-01-19 01:35:00,20.6,6.2,30.29,SW,222,0.0,0.0,53,0.00,,,0.00,Wunderground v.1.15,2013-01-19 06:35:00,
2013-01-19 01:44:00,20.8,6.3,30.29,SW,222,0.0,0.0,53,0.00,,,0.00,Wunderground v.1.15,2013-01-19 06:44:00,
2013-01-19 01:49:00,21.0,6.5,30.29,SW,236,0.0,0.0,53,0.00,,,0.00,Wunderground v.1.15,2013-01-19 06:49:00,
2013-01-19 01:54:00,21.0,6.9,30.29,SW,232,0.0,0.0,54,0.00,,,0.00,Wunderground v.1.15,2013-01-19 06:54:00,
2013-01-19 01:59:00,21.0,7.3,30.28,South,186,0.0,2.0,55,0.00,,,0.00,Wunderground v.1.15,2013-01-19 06:59:00,
2013-01-19 02:09:00,21.3,6.8,30.28,West,261,0.0,2.0,53,0.00,,,0.00,Wunderground v.1.15,2013-01-19 07:09:00,
2013-01-19 02:14:00,21.4,7.7,30.28,SW,223,0.0,2.0,55,0.00,,,0.00,Wunderground v.1.15,2013-01-19 07:14:00,
2013-01-19 02:19:00,21.4,8.1,30.28,SW,224,0.0,2.0,56,0.00,,,0.00,Wunderground v.1.15,2013-01-19 07:19:00,
2013-01-19 02:24:00,21.6,7.9,30.28,SW,230,0.0,2.0,55,0.00,,,0.00,Wunderground v.1.15,2013-01-19 07:24:00,
2013-01-19 02:29:00,21.6,7.9,30.26,SW,223,0.0,2.0,55,0.00,,,0.00,Wunderground v.1.15,2013-01-19 07:29:00,
2013-01-19 02:39:00,21.8,7.7,30.26,SW,233,0.0,2.0,54,0.00,,,0.00,Wunderground v.1.15,2013-01-19 07:39:00,
2013-01-19 02:44:00,21.8,7.3,30.25,SW,220,0.0,2.0,53,0.00,,,0.00,Wunderground v.1.15,2013-01-19 07:44:00,
2013-01-19 02:49:00,21.9,8.2,30.25,SW,223,0.0,2.0,55,0.00,,,0.00,Wunderground v.1.15,2013-01-19 07:49:00,
2013-01-19 02:54:00,21.9,7.8,30.25,WSW,240,0.0,2.0,54,0.00,,,0.00,Wunderground v.1.15,2013-01-19 07:54:00,
2013-01-19 02:59:00,21.9,8.2,30.24,WSW,241,0.0,2.0,55,0.00,,,0.00,Wunderground v.1.15,2013-01-19 07:59:00,
2013-01-19 03:04:00,21.9,8.2,30.24,SW,233,0.0,2.0,55,0.00,,,0.00,Wunderground v.1.15,2013-01-19 08:04:00,
2013-01-19 03:14:00,21.9,9.0,30.24,SW,234,0.0,2.0,57,0.00,,,0.00,Wunderground v.1.15,2013-01-19 08:14:00,
2013-01-19 03:19:00,21.9,9.0,30.24,SW,232,0.0,2.0,57,0.00,,,0.00,Wunderground v.1.15,2013-01-19 08:19:00,
2013-01-19 03:24:00,21.9,8.6,30.24,SW,230,0.0,2.0,56,0.00,,,0.00,Wunderground v.1.15,2013-01-19 08:24:00,
2013-01-19 03:30:00,22.1,8.8,30.22,SW,226,0.0,2.0,56,0.00,,,0.00,Wunderground v.1.15,2013-01-19 08:30:00,
2013-01-19 03:35:00,22.1,9.2,30.22,SW,226,0.0,2.0,57,0.00,,,0.00,Wunderground v.1.15,2013-01-19 08:35:00,
2013-01-19 03:45:00,22.2,9.3,30.21,SW,230,0.0,2.0,57,0.00,,,0.00,Wunderground v.1.15,2013-01-19 08:45:00,
2013-01-19 03:50:00,22.4,9.4,30.21,SW,230,0.0,2.0,57,0.00,,,0.00,Wunderground v.1.15,2013-01-19 08:50:00,
2013-01-19 03:55:00,22.4,10.2,30.21,SW,230,0.0,2.0,59,0.00,,,0.00,Wunderground v.1.15,2013-01-19 08:55:00,
2013-01-19 04:04:00,22.5,9.9,30.21,SW,223,0.0,2.0,58,0.00,,,0.00,Wunderground v.1.15,2013-01-19 09:04:00,
2013-01-19 04:09:00,22.7,10.1,30.21,SW,232,0.0,2.0,58,0.00,,,0.00,Wunderground v.1.15,2013-01-19 09:09:00,
2013-01-19 04:15:00,22.9,10.3,30.21,SW,232,0.0,2.0,58,0.00,,,0.00,Wunderground v.1.15,2013-01-19 09:15:00,
2013-01-19 04:20:00,22.9,10.3,30.21,SW,232,0.0,2.0,58,0.00,,,0.00,Wunderground v.1.15,2013-01-19 09:20:00,
2013-01-19 04:29:00,23.2,11.0,30.20,SSW,206,0.0,2.0,59,0.00,,,0.00,Wunderground v.1.15,2013-01-19 09:29:00,
2013-01-19 04:34:00,23.2,10.6,30.20,SW,233,0.0,2.0,58,0.00,,,0.00,Wunderground v.1.15,2013-01-19 09:34:00,
2013-01-19 04:39:00,23.3,10.7,30.20,SW,236,0.0,2.0,58,0.00,,,0.00,Wunderground v.1.15,2013-01-19 09:39:00,
2013-01-19 04:44:00,23.5,10.9,30.18,SW,223,0.0,2.0,58,0.00,,,0.00,Wunderground v.1.15,2013-01-19 09:44:00,
2013-01-19 04:54:00,23.6,11.4,30.18,SW,223,0.0,2.0,59,0.00,,,0.00,Wunderground v.1.15,2013-01-19 09:54:00,
2013-01-19 04:59:00,23.6,11.0,30.17,SW,223,0.0,2.0,58,0.00,,,0.00,Wunderground v.1.15,2013-01-19 09:59:00,
2013-01-19 05:04:00,23.8,11.2,30.17,SW,226,1.0,2.0,58,0.00,,,0.00,Wunderground v.1.15,2013-01-19 10:04:00,
2013-01-19 05:09:00,23.9,12.0,30.17,SW,223,0.0,2.0,60,0.00,,,0.00,Wunderground v.1.15,2013-01-19 10:09:00,
2013-01-19 05:14:00,23.9,12.0,30.17,SW,223,0.0,2.0,60,0.00,,,0.00,Wunderground v.1.15,2013-01-19 10:14:00,
2013-01-19 05:24:00,23.9,12.4,30.17,WSW,241,0.0,2.0,61,0.00,,,0.00,Wunderground v.1.15,2013-01-19 10:24:00,
2013-01-19 05:29:00,24.1,12.6,30.17,WSW,241,0.0,2.0,61,0.00,,,0.00,Wunderground v.1.15,2013-01-19 10:29:00,
2013-01-19 05:34:00,24.1,12.6,30.17,SW,232,0.0,2.0,61,0.00,,,0.00,Wunderground v.1.15,2013-01-19 10:34:00,
2013-01-19 05:39:00,24.1,12.6,30.17,SW,230,0.0,2.0,61,0.00,,,0.00,Wunderground v.1.15,2013-01-19 10:39:00,
2013-01-19 05:44:00,24.1,12.6,30.16,SW,222,0.0,2.0,61,0.00,,,0.00,Wunderground v.1.15,2013-01-19 10:44:00,
2013-01-19 05:50:00,24.1,12.6,30.16,SW,226,0.0,2.0,61,0.00,,,0.00,Wunderground v.1.15,2013-01-19 10:50:00,
2013-01-19 05:59:00,24.5,13.0,30.14,SW,223,0.0,2.0,61,0.00,,,0.00,Wunderground v.1.15,2013-01-19 10:59:00,
2013-01-19 06:05:00,24.7,13.1,30.14,SW,227,0.0,2.0,61,0.00,,,0.00,Wunderground v.1.15,2013-01-19 11:05:00,
2013-01-19 06:10:00,24.8,13.2,30.14,WSW,243,0.0,2.0,61,0.00,,,0.00,Wunderground v.1.15,2013-01-19 11:10:00,
2013-01-19 06:15:00,25.1,13.9,30.14,SW,226,0.0,4.0,62,0.00,,,0.00,Wunderground v.1.15,2013-01-19 11:15:00,
2013-01-19 07:49:00,27.2,16.3,30.12,SW,220,0.0,2.0,63,0.00,,,0.00,Wunderground v.1.15,2013-01-19 12:49:00,
2013-01-19 07:54:00,27.3,16.4,30.12,SW,224,0.0,2.0,63,0.00,,,0.00,Wunderground v.1.15,2013-01-19 12:54:00,
2013-01-19 07:59:00,27.6,16.6,30.12,West,270,1.0,2.0,63,0.00,,,0.00,Wunderground v.1.15,2013-01-19 12:59:00,
2013-01-19 08:04:00,27.8,16.5,30.12,SSW,192,1.0,2.0,62,0.00,,,0.00,Wunderground v.1.15,2013-01-19 13:04:00,
2013-01-19 08:09:00,28.1,16.7,30.12,WSW,251,0.0,2.0,62,0.00,,,0.00,Wunderground v.1.15,2013-01-19 13:09:00,
2013-01-19 08:14:00,28.2,17.2,30.12,WSW,251,0.0,2.0,63,0.00,,,0.00,Wunderground v.1.15,2013-01-19 13:14:00,
2013-01-19 08:19:00,28.4,17.0,30.12,WSW,244,0.0,2.0,62,0.00,,,0.00,Wunderground v.1.15,2013-01-19 13:19:00,
2013-01-19 08:29:00,29.0,17.6,30.11,South,191,1.0,1.0,62,0.00,,,0.00,Wunderground v.1.15,2013-01-19 13:29:00,
2013-01-19 08:34:00,29.0,17.6,30.11,SW,226,0.0,2.0,62,0.00,,,0.00,Wunderground v.1.15,2013-01-19 13:34:00,
2013-01-19 08:39:00,29.1,18.1,30.11,SW,230,0.0,2.0,63,0.00,,,0.00,Wunderground v.1.15,2013-01-19 13:39:00,
2013-01-19 08:45:00,29.3,17.9,30.11,West,267,0.0,2.0,62,0.00,,,0.00,Wunderground v.1.15,2013-01-19 13:45:00,
2013-01-19 08:50:00,29.4,18.0,30.11,SW,223,0.0,2.0,62,0.00,,,0.00,Wunderground v.1.15,2013-01-19 13:50:00,
2013-01-19 08:55:00,29.7,18.3,30.11,SW,223,1.0,2.0,62,0.00,,,0.00,Wunderground v.1.15,2013-01-19 13:55:00,
2013-01-19 09:00:00,30.0,18.5,30.11,West,265,1.0,2.0,62,0.00,,,0.00,Wunderground v.1.15,2013-01-19 14:00:00,
2013-01-19 09:05:00,30.3,18.8,30.11,SW,232,1.0,2.0,62,0.00,,,0.00,Wunderground v.1.15,2013-01-19 14:05:00,
2013-01-19 09:14:00,31.2,19.3,30.10,WSW,240,0.0,2.0,61,0.00,,,0.00,Wunderground v.1.15,2013-01-19 14:14:00,
2013-01-19 09:19:00,31.5,19.2,30.10,SW,223,0.0,5.0,60,0.00,,,0.00,Wunderground v.1.15,2013-01-19 14:19:00,
2013-01-19 09:24:00,31.8,19.5,30.10,West,268,0.0,5.0,60,0.00,,,0.00,Wunderground v.1.15,2013-01-19 14:24:00,
2013-01-19 09:34:00,32.5,19.7,30.10,SW,223,1.0,2.0,59,0.00,,,0.00,Wunderground v.1.15,2013-01-19 14:34:00,
2013-01-19 09:39:00,32.7,19.9,30.10,SW,227,0.0,2.0,59,0.00,,,0.00,Wunderground v.1.15,2013-01-19 14:39:00,
2013-01-19 09:44:00,33.1,20.3,30.09,SW,232,0.0,3.0,59,0.00,,,0.00,Wunderground v.1.15,2013-01-19 14:44:00,
2013-01-19 09:49:00,33.2,20.0,30.09,WSW,239,1.0,1.0,58,0.00,,,0.00,Wunderground v.1.15,2013-01-19 14:49:00,
2013-01-19 09:54:00,33.7,20.9,30.09,WSW,240,1.0,3.0,59,0.00,,,0.00,Wunderground v.1.15,2013-01-19 14:54:00,
2013-01-19 09:59:00,34.1,21.3,30.09,SW,215,1.0,1.0,59,0.00,,,0.00,Wunderground v.1.15,2013-01-19 14:59:00,
2013-01-19 10:09:00,35.0,22.1,30.09,SW,229,0.0,2.0,59,0.00,,,0.00,Wunderground v.1.15,2013-01-19 15:09:00,
2013-01-19 10:14:00,35.5,20.9,30.08,West,281,1.0,2.0,55,0.00,,,0.00,Wunderground v.1.15,2013-01-19 15:14:00,
2013-01-19 10:19:00,36.0,21.8,30.08,North,0,1.0,2.0,56,0.00,,,0.00,Wunderground v.1.15,2013-01-19 15:19:00,
2013-01-19 10:24:00,36.3,21.2,30.08,West,267,1.0,2.0,54,0.00,,,0.00,Wunderground v.1.15,2013-01-19 15:24:00,
2013-01-19 10:29:00,36.8,21.7,30.07,NW,322,1.0,2.0,54,0.00,,,0.00,Wunderground v.1.15,2013-01-19 15:29:00,
2013-01-19 10:39:00,37.6,22.0,30.07,WNW,291,1.0,1.0,53,0.00,,,0.00,Wunderground v.1.15,2013-01-19 15:39:00,
2013-01-19 10:44:00,37.9,22.3,30.06,WNW,284,1.0,2.0,53,0.00,,,0.00,Wunderground v.1.15,2013-01-19 15:44:00,
2013-01-19 10:49:00,38.3,22.2,30.06,WSW,240,1.0,2.0,52,0.00,,,0.00,Wunderground v.1.15,2013-01-19 15:49:00,
2013-01-19 10:54:00,38.8,23.1,30.06,WSW,253,2.0,2.0,53,0.00,,,0.00,Wunderground v.1.15,2013-01-19 15:54:00,
2013-01-19 10:59:00,39.1,23.4,30.05,WSW,248,2.0,2.0,53,0.00,,,0.00,Wunderground v.1.15,2013-01-19 15:59:00,
2013-01-19 11:04:00,39.3,22.7,30.05,WSW,247,2.0,6.0,51,0.00,,,0.00,Wunderground v.1.15,2013-01-19 16:04:00,
2013-01-19 11:14:00,40.1,22.0,30.02,East,88,1.0,2.0,48,0.00,,,0.00,Wunderground v.1.15,2013-01-19 16:14:00,
2013-01-19 11:19:00,40.2,23.5,30.02,WSW,239,1.0,2.0,51,0.00,,,0.00,Wunderground v.1.15,2013-01-19 16:19:00,
2013-01-19 11:24:00,40.2,23.0,30.02,WNW,285,1.0,2.0,50,0.00,,,0.00,Wunderground v.1.15,2013-01-19 16:24:00,
2013-01-19 11:30:00,40.3,21.6,30.01,WSW,250,1.0,1.0,47,0.00,,,0.00,Wunderground v.1.15,2013-01-19 16:30:00,
2013-01-19 11:35:00,40.3,23.1,30.01,NW,318,1.0,2.0,50,0.00,,,0.00,Wunderground v.1.15,2013-01-19 16:35:00,
2013-01-19 11:44:00,40.6,21.9,30.00,East,88,1.0,2.0,47,0.00,,,0.00,Wunderground v.1.15,2013-01-19 16:44:00,
2013-01-19 11:49:00,40.9,23.2,30.00,West,263,1.0,2.0,49,0.00,,,0.00,Wunderground v.1.15,2013-01-19 16:49:00,
2013-01-19 11:54:00,41.3,22.6,30.00,WSW,237,1.0,2.0,47,0.00,,,0.00,Wunderground v.1.15,2013-01-19 16:54:00,
2013-01-19 11:59:00,41.6,23.3,29.99,West,268,1.0,2.0,48,0.00,,,0.00,Wunderground v.1.15,2013-01-19 16:59:00,
2013-01-19 12:04:00,41.8,22.5,29.99,North,10,2.0,2.0,46,0.00,,,0.01,Wunderground v.1.15,2013-01-19 17:04:00,
2013-01-19 12:09:00,41.8,22.5,29.99,SW,233,2.0,2.0,46,0.07,,,0.01,Wunderground v.1.15,2013-01-19 17:09:00,
2013-01-19 12:15:00,41.8,22.5,29.97,West,267,5.0,5.0,46,0.07,,,0.01,Wunderground v.1.15,2013-01-19 17:15:00,
2013-01-19 12:25:00,42.6,23.2,29.97,West,272,2.0,2.0,46,0.04,,,0.02,Wunderground v.1.15,2013-01-19 17:25:00,
2013-01-19 12:34:00,42.2,22.9,29.97,West,263,2.0,2.0,46,0.00,,,0.03,Wunderground v.1.15,2013-01-19 17:34:00,
2013-01-19 12:39:00,42.1,23.3,29.97,West,270,2.0,2.0,47,0.00,,,0.03,Wunderground v.1.15,2013-01-19 17:39:00,
2013-01-19 12:44:00,42.2,23.4,29.97,WSW,246,1.0,2.0,47,0.04,,,0.03,Wunderground v.1.15,2013-01-19 17:44:00,
2013-01-19 12:49:00,42.3,23.5,29.97,WNW,302,2.0,2.0,47,0.04,,,0.03,Wunderground v.1.15,2013-01-19 17:49:00,
2013-01-19 12:55:00,42.5,23.7,29.97,NE,52,1.0,2.0,47,0.04,,,0.04,Wunderground v.1.15,2013-01-19 17:55:00,
2013-01-19 13:04:00,42.6,24.3,29.96,SW,224,1.0,2.0,48,0.00,,,0.04,Wunderground v.1.15,2013-01-19 18:04:00,
2013-01-19 13:09:00,42.6,24.3,29.96,WSW,253,2.0,2.0,48,0.00,,,0.04,Wunderground v.1.15,2013-01-19 18:09:00,
2013-01-19 13:14:00,42.9,24.0,29.95,North,0,2.0,2.0,47,0.00,,,0.05,Wunderground v.1.15,2013-01-19 18:14:00,
2013-01-19 13:19:00,42.9,24.0,29.95,SW,234,2.0,3.0,47,0.00,,,0.05,Wunderground v.1.15,2013-01-19 18:19:00,
2013-01-19 13:25:00,42.9,24.5,29.95,West,280,1.0,3.0,48,0.00,,,0.05,Wunderground v.1.15,2013-01-19 18:25:00,
2013-01-19 13:35:00,42.9,24.5,29.94,SW,230,1.0,2.0,48,0.00,,,0.05,Wunderground v.1.15,2013-01-19 18:35:00,
2013-01-19 13:40:00,42.5,24.2,29.94,NW,304,0.0,2.0,48,0.00,,,0.05,Wunderground v.1.15,2013-01-19 18:40:00,
2013-01-19 13:45:00,42.3,24.5,29.94,SSW,210,2.0,2.0,49,0.00,,,0.05,Wunderground v.1.15,2013-01-19 18:45:00,
2013-01-19 13:54:00,42.5,23.2,29.94,WSW,257,2.0,2.0,46,0.00,,,0.07,Wunderground v.1.15,2013-01-19 18:54:00,
2013-01-19 13:59:00,42.3,23.5,29.94,WNW,287,2.0,2.0,47,0.00,,,0.07,Wunderground v.1.15,2013-01-19 18:59:00,
2013-01-19 14:04:00,42.2,24.4,29.94,WSW,256,1.0,2.0,49,0.04,,,0.08,Wunderground v.1.15,2013-01-19 19:04:00,
2013-01-19 14:29:00,42.2,23.9,29.93,WSW,246,1.0,2.0,48,0.00,,,0.09,Wunderground v.1.15,2013-01-19 19:29:00,
2013-01-19 14:34:00,42.2,24.9,29.93,NW,320,0.0,2.0,50,0.00,,,0.09,Wunderground v.1.15,2013-01-19 19:34:00,
2013-01-19 14:39:00,42.2,24.4,29.93,West,265,0.0,2.0,49,0.04,,,0.10,Wunderground v.1.15,2013-01-19 19:39:00,
2013-01-19 14:45:00,41.9,23.6,29.93,West,268,0.0,2.0,48,0.04,,,0.10,Wunderground v.1.15,2013-01-19 19:45:00,
2013-01-19 14:54:00,41.9,23.6,29.93,NE,41,0.0,2.0,48,0.04,,,0.10,Wunderground v.1.15,2013-01-19 19:54:00,
2013-01-19 15:00:00,41.9,23.6,29.94,ENE,66,0.0,2.0,48,0.04,,,0.10,Wunderground v.1.15,2013-01-19 20:00:00,
2013-01-19 15:09:00,41.9,23.6,29.94,ENE,66,0.0,2.0,48,0.04,,,0.10,Wunderground v.1.15,2013-01-19 20:09:00,
2013-01-19 15:14:00,-999.9,-99.9,29.93,North,32767,-999.0,2.0,255,-99.99,,,0.10,Wunderground v.1.15,2013-01-19 20:14:00,
2013-01-19 15:19:00,-999.9,-99.9,29.93,North,32767,-999.0,2.0,255,-99.99,,,0.10,Wunderground v.1.15,2013-01-19 20:19:00,
2013-01-19 15:24:00,-999.9,-99.9,29.93,North,32767,-999.0,2.0,255,-99.99,,,0.10,Wunderground v.1.15,2013-01-19 20:24:00,
2013-01-19 15:30:00,-999.9,-99.9,29.93,North,32767,-999.0,2.0,255,-99.99,,,0.10,Wunderground v.1.15,2013-01-19 20:30:00,
2013-01-19 15:35:00,-999.9,-99.9,29.93,North,32767,-999.0,2.0,255,-99.99,,,0.10,Wunderground v.1.15,2013-01-19 20:35:00,
2013-01-19 15:40:00,-999.9,-99.9,29.93,North,32767,-999.0,2.0,255,-99.99,,,0.10,Wunderground v.1.15,2013-01-19 20:40:00,
2013-01-19 15:49:00,-999.9,-99.9,29.93,North,32767,-999.0,2.0,255,-99.99,,,0.10,Wunderground v.1.15,2013-01-19 20:49:00,
2013-01-19 15:54:00,-999.9,-99.9,29.93,North,32767,-999.0,2.0,255,-99.99,,,0.10,Wunderground v.1.15,2013-01-19 20:54:00,
2013-01-19 15:59:00,-999.9,-99.9,29.93,North,32767,-999.0,2.0,255,-99.99,,,0.10,Wunderground v.1.15,2013-01-19 20:59:00,
2013-01-19 16:04:00,-999.9,-99.9,29.93,North,32767,-999.0,2.0,255,-99.99,,,0.10,Wunderground v.1.15,2013-01-19 21:04:00,
2013-01-19 16:10:00,-999.9,-99.9,29.93,North,32767,-999.0,2.0,255,-99.99,,,0.10,Wunderground v.1.15,2013-01-19 21:10:00,
2013-01-19 16:19:00,-999.9,-99.9,29.93,North,32767,-999.0,2.0,255,-99.99,,,0.10,Wunderground v.1.15,2013-01-19 21:19:00,
2013-01-19 16:24:00,-999.9,-99.9,29.93,North,32767,-999.0,2.0,255,-99.99,,,0.10,Wunderground v.1.15,2013-01-19 21:24:00,
2013-01-19 16:35:00,-999.9,-99.9,29.93,North,32767,-999.0,2.0,255,-99.99,,,0.10,Wunderground v.1.15,2013-01-19 21:35:00,
2013-01-19 16:45:00,-999.9,-99.9,29.93,North,32767,-999.0,2.0,255,-99.99,,,0.10,Wunderground v.1.15,2013-01-19 21:45:00,
2013-01-19 16:55:00,-999.9,-99.9,29.93,North,32767,-999.0,2.0,255,-99.99,,,0.10,Wunderground v.1.15,2013-01-19 21:55:00,
2013-01-19 17:05:00,-999.9,-99.9,29.93,North,32767,-999.0,2.0,255,-99.99,,,0.10,Wunderground v.1.15,2013-01-19 22:05:00,
2013-01-19 17:10:00,-999.9,-99.9,29.93,North,32767,-999.0,2.0,255,-99.99,,,0.10,Wunderground v.1.15,2013-01-19 22:10:00,
2013-01-19 17:19:00,-999.9,-99.9,29.94,North,32767,-999.0,2.0,255,-99.99,,,0.10,Wunderground v.1.15,2013-01-19 22:19:00,
2013-01-19 17:24:00,-999.9,-99.9,29.94,North,32767,-999.0,2.0,255,-99.99,,,0.10,Wunderground v.1.15,2013-01-19 22:24:00,
2013-01-19 17:30:00,-999.9,-99.9,29.94,North,32767,-999.0,2.0,255,-99.99,,,0.10,Wunderground v.1.15,2013-01-19 22:30:00,
2013-01-19 17:40:00,-999.9,-99.9,29.94,North,32767,-999.0,2.0,255,-99.99,,,0.10,Wunderground v.1.15,2013-01-19 22:40:00,
2013-01-19 17:49:00,-999.9,-99.9,29.94,North,32767,-999.0,2.0,255,-99.99,,,0.10,Wunderground v.1.15,2013-01-19 22:49:00,
2013-01-19 17:54:00,-999.9,-99.9,29.94,North,32767,-999.0,2.0,255,-99.99,,,0.10,Wunderground v.1.15,2013-01-19 22:54:00,
2013-01-19 17:59:00,-999.9,-99.9,29.94,North,32767,-999.0,2.0,255,-99.99,,,0.10,Wunderground v.1.15,2013-01-19 22:59:00,
2013-01-19 18:04:00,-999.9,-99.9,29.94,North,32767,-999.0,2.0,255,-99.99,,,0.10,Wunderground v.1.15,2013-01-19 23:04:00,
2013-01-19 18:10:00,-999.9,-99.9,29.94,North,32767,-999.0,2.0,255,-99.99,,,0.10,Wunderground v.1.15,2013-01-19 23:10:00,
2013-01-19 18:19:00,-999.9,-99.9,29.94,North,32767,-999.0,2.0,255,-99.99,,,0.10,Wunderground v.1.15,2013-01-19 23:19:00,
2013-01-19 18:25:00,-999.9,-99.9,29.94,North,32767,-999.0,2.0,255,-99.99,,,0.10,Wunderground v.1.15,2013-01-19 23:25:00,
2013-01-19 18:34:00,-999.9,-99.9,29.94,North,32767,-999.0,2.0,255,-99.99,,,0.10,Wunderground v.1.15,2013-01-19 23:34:00,
2013-01-19 18:39:00,-999.9,-99.9,29.94,North,32767,-999.0,2.0,255,-99.99,,,0.10,Wunderground v.1.15,2013-01-19 23:39:00,
2013-01-19 18:44:00,-999.9,-99.9,29.94,North,32767,-999.0,2.0,255,-99.99,,,0.10,Wunderground v.1.15,2013-01-19 23:44:00,
2013-01-19 18:49:00,-999.9,-99.9,29.94,North,32767,-999.0,2.0,255,-99.99,,,0.10,Wunderground v.1.15,2013-01-19 23:49:00,
2013-01-19 18:55:00,-999.9,-99.9,29.94,North,32767,-999.0,2.0,255,-99.99,,,0.10,Wunderground v.1.15,2013-01-19 23:55:00,
2013-01-19 19:10:00,-999.9,-99.9,29.94,North,32767,-999.0,2.0,255,-99.99,,,0.10,Wunderground v.1.15,2013-01-20 00:10:00,
2013-01-19 19:19:00,-999.9,-99.9,29.94,North,32767,-999.0,2.0,255,-99.99,,,0.10,Wunderground v.1.15,2013-01-20 00:19:00,
2013-01-19 19:24:00,-999.9,-99.9,29.94,North,32767,-999.0,2.0,255,-99.99,,,0.10,Wunderground v.1.15,2013-01-20 00:24:00,
2013-01-19 19:29:00,-999.9,-99.9,29.93,North,32767,-999.0,2.0,255,-99.99,,,0.10,Wunderground v.1.15,2013-01-20 00:29:00,
2013-01-19 19:34:00,-999.9,-99.9,29.93,North,32767,-999.0,2.0,255,-99.99,,,0.10,Wunderground v.1.15,2013-01-20 00:34:00,
2013-01-19 19:39:00,-999.9,-99.9,29.93,North,32767,-999.0,2.0,255,-99.99,,,0.10,Wunderground v.1.15,2013-01-20 00:39:00,
2013-01-19 19:45:00,-999.9,-99.9,29.93,North,32767,-999.0,2.0,255,-99.99,,,0.10,Wunderground v.1.15,2013-01-20 00:45:00,
2013-01-19 19:55:00,-999.9,-99.9,29.93,North,32767,-999.0,2.0,255,-99.99,,,0.10,Wunderground v.1.15,2013-01-20 00:55:00,
2013-01-19 20:04:00,-999.9,-99.9,29.93,North,32767,-999.0,2.0,255,-99.99,,,0.10,Wunderground v.1.15,2013-01-20 01:04:00,
2013-01-19 20:10:00,-999.9,-99.9,29.93,North,32767,-999.0,2.0,255,-99.99,,,0.10,Wunderground v.1.15,2013-01-20 01:10:00,
2013-01-19 20:15:00,-999.9,-99.9,29.93,North,32767,-999.0,2.0,255,-99.99,,,0.10,Wunderground v.1.15,2013-01-20 01:15:00,
2013-01-19 20:24:00,-999.9,-99.9,29.93,North,32767,-999.0,2.0,255,-99.99,,,0.10,Wunderground v.1.15,2013-01-20 01:24:00,
2013-01-19 20:29:00,-999.9,-99.9,29.92,North,32767,-999.0,2.0,255,-99.99,,,0.10,Wunderground v.1.15,2013-01-20 01:29:00,
2013-01-19 20:34:00,-999.9,-99.9,29.92,North,32767,-999.0,2.0,255,-99.99,,,0.10,Wunderground v.1.15,2013-01-20 01:34:00,
2013-01-19 20:39:00,-999.9,-99.9,29.92,North,32767,-999.0,2.0,255,-99.99,,,0.10,Wunderground v.1.15,2013-01-20 01:39:00,
2013-01-19 20:44:00,-999.9,-99.9,29.92,North,32767,-999.0,2.0,255,-99.99,,,0.10,Wunderground v.1.15,2013-01-20 01:44:00,
2013-01-19 21:00:00,-999.9,-99.9,29.91,North,32767,-999.0,2.0,255,-99.99,,,0.10,Wunderground v.1.15,2013-01-20 02:00:00,
2013-01-19 21:10:00,-999.9,-99.9,29.91,North,32767,-999.0,2.0,255,-99.99,,,0.10,Wunderground v.1.15,2013-01-20 02:10:00,
2013-01-19 21:19:00,-999.9,-99.9,29.91,North,32767,-999.0,2.0,255,-99.99,,,0.10,Wunderground v.1.15,2013-01-20 02:19:00,
2013-01-19 21:24:00,30.4,-99.9,29.91,WSW,254,0.0,2.0,255,0.00,,,0.10,Wunderground v.1.15,2013-01-20 02:24:00,
2013-01-19 21:29:00,30.4,25.3,29.90,WSW,254,0.0,2.0,81,0.00,,,0.10,Wunderground v.1.15,2013-01-20 02:29:00,
2013-01-19 21:34:00,30.3,25.2,29.90,WSW,254,0.0,2.0,81,0.00,,,0.10,Wunderground v.1.15,2013-01-20 02:34:00,
2013-01-19 21:44:00,30.0,25.2,29.89,WSW,254,0.0,2.0,82,0.00,,,0.10,Wunderground v.1.15,2013-01-20 02:44:00,
2013-01-19 21:49:00,29.8,25.0,29.89,WSW,254,0.0,2.0,82,0.00,,,0.10,Wunderground v.1.15,2013-01-20 02:49:00,
2013-01-19 21:54:00,29.8,25.0,29.89,WSW,254,0.0,2.0,82,0.00,,,0.10,Wunderground v.1.15,2013-01-20 02:54:00,
2013-01-19 21:59:00,29.8,25.0,29.88,WSW,254,0.0,2.0,82,0.00,,,0.10,Wunderground v.1.15,2013-01-20 02:59:00,
2013-01-19 22:05:00,-999.9,-99.9,29.88,North,32767,-999.0,2.0,255,-99.99,,,0.10,Wunderground v.1.15,2013-01-20 03:05:00,
2013-01-19 22:14:00,-999.9,-99.9,29.87,North,32767,-999.0,2.0,255,-99.99,,,0.10,Wunderground v.1.15,2013-01-20 03:14:00,
2013-01-19 22:19:00,-999.9,-99.9,29.87,North,32767,-999.0,2.0,255,-99.99,,,0.10,Wunderground v.1.15,2013-01-20 03:19:00,
2013-01-19 22:24:00,-999.9,-99.9,29.87,North,32767,-999.0,2.0,255,-99.99,,,0.10,Wunderground v.1.15,2013-01-20 03:24:00,
2013-01-19 22:30:00,-999.9,-99.9,29.86,North,32767,-999.0,2.0,255,-99.99,,,0.10,Wunderground v.1.15,2013-01-20 03:30:00,
2013-01-19 22:39:00,-999.9,-99.9,29.86,North,32767,-999.0,2.0,255,-99.99,,,0.10,Wunderground v.1.15,2013-01-20 03:39:00,
2013-01-19 22:44:00,-999.9,-99.9,29.86,North,32767,-999.0,2.0,255,-99.99,,,0.10,Wunderground v.1.15,2013-01-20 03:44:00,
2013-01-19 22:50:00,-999.9,-99.9,29.86,North,32767,-999.0,2.0,255,-99.99,,,0.10,Wunderground v.1.15,2013-01-20 03:50:00,
2013-01-19 22:59:00,-999.9,-99.9,29.84,North,32767,-999.0,2.0,255,-99.99,,,0.10,Wunderground v.1.15,2013-01-20 03:59:00,
2013-01-19 23:04:00,-999.9,-99.9,29.84,North,32767,-999.0,2.0,255,-99.99,,,0.10,Wunderground v.1.15,2013-01-20 04:04:00,
2013-01-19 23:09:00,-999.9,-99.9,29.84,North,32767,-999.0,2.0,255,-99.99,,,0.10,Wunderground v.1.15,2013-01-20 04:09:00,
2013-01-19 23:14:00,-999.9,-99.9,29.84,North,32767,-999.0,2.0,255,-99.99,,,0.10,Wunderground v.1.15,2013-01-20 04:14:00,
2013-01-19 23:19:00,-999.9,-99.9,29.84,North,32767,-999.0,2.0,255,-99.99,,,0.10,Wunderground v.1.15,2013-01-20 04:19:00,
2013-01-19 23:29:00,-999.9,-99.9,29.83,North,32767,-999.0,2.0,255,-99.99,,,0.10,Wunderground v.1.15,2013-01-20 04:29:00,
2013-01-19 23:34:00,-999.9,-99.9,29.83,North,32767,-999.0,2.0,255,-99.99,,,0.10,Wunderground v.1.15,2013-01-20 04:34:00,
2013-01-19 23:39:00,-999.9,-99.9,29.83,North,32767,-999.0,2.0,255,-99.99,,,0.10,Wunderground v.1.15,2013-01-20 04:39:00,
2013-01-19 23:44:00,-999.9,-99.9,29.81,North,32767,-999.0,2.0,255,-99.99,,,0.10,Wunderground v.1.15,2013-01-20 04:44:00,
2013-01-19 23:49:00,-999.9,-99.9,29.81,North,32767,-999.0,2.0,255,-99.99,,,0.10,Wunderground v.1.15,2013-01-20 04:49:00,